Time;durP1;ratioP1;P1;durP2;ratioP2;P2;SDS_P1;SDS_P2;PMS_P1;PMS_P2;Temp;Humidity;BMP_temperature;BMP_pressure;BME280_temperature;BME280_humidity;BME280_pressure;Samples;Min_cycle;Max_cycle;Signal;HPM_P1;HPM_P2
2022/10/20 00:01:27;;;;;;;3.90;2.40;;;;;;;25.84;20.99;99128.41;5033062;28;20030;-78
2022/10/20 00:03:54;;;;;;;3.70;3.05;;;;;;;25.86;20.84;99125.97;5019576;28;20041;-78
2022/10/20 00:06:26;;;;;;;3.83;2.97;;;;;;;25.97;20.85;99137.91;5018447;28;20399;-77
2022/10/20 00:08:54;;;;;;;4.07;3.08;;;;;;;25.98;20.74;99133.84;5015968;28;20049;-78
2022/10/20 00:11:22;;;;;;;4.05;3.05;;;;;;;26.13;20.44;99137.31;5023628;28;20033;-77
2022/10/20 00:13:50;;;;;;;5.93;2.90;;;;;;;26.18;19.77;99136.84;5019905;28;20489;-78
2022/10/20 00:16:18;;;;;;;3.35;2.75;;;;;;;26.13;20.45;99134.50;5021043;28;20038;-78
2022/10/20 00:18:44;;;;;;;2.67;2.33;;;;;;;26.11;20.41;99132.13;5027875;28;20045;-78
2022/10/20 00:21:14;;;;;;;3.00;2.72;;;;;;;26.30;20.10;99133.47;5031036;28;20479;-77
2022/10/20 00:23:41;;;;;;;2.40;2.17;;;;;;;26.31;20.16;99135.84;5026391;28;20390;-78
2022/10/20 00:26:24;;;;;;;3.80;2.53;;;;;;;26.24;20.36;99137.97;5028795;28;20034;-78
2022/10/20 00:28:51;;;;;;;2.83;2.30;;;;;;;26.12;19.95;99138.53;5028835;28;20030;-78
2022/10/20 00:31:18;;;;;;;3.95;2.60;;;;;;;26.09;20.24;99135.31;5026161;28;20033;-78
2022/10/20 00:33:45;;;;;;;6.88;3.72;;;;;;;26.14;20.50;99130.47;5023552;28;20026;-77
2022/10/20 00:36:14;;;;;;;5.80;2.95;;;;;;;26.15;20.00;99126.44;5022971;28;20052;-78
2022/10/20 00:38:41;;;;;;;3.92;2.72;;;;;;;26.11;20.25;99134.13;5025654;28;20037;-78
2022/10/20 00:41:07;;;;;;;2.75;2.28;;;;;;;25.95;20.17;99123.47;5025008;28;20630;-78
2022/10/20 00:44:02;;;;;;;4.82;2.53;;;;;;;25.45;20.57;99134.50;5034779;28;20053;-78
2022/10/20 00:46:32;;;;;;;2.90;2.22;;;;;;;25.42;20.49;99132.47;5032353;28;20120;-77
2022/10/20 00:49:20;;;;;;;3.63;2.88;;;;;;;25.14;20.91;99127.16;5035716;28;20048;-78
2022/10/20 00:51:47;;;;;;;2.97;2.45;;;;;;;25.45;20.34;99128.88;5032343;28;20033;-78
2022/10/20 00:54:18;;;;;;;2.47;1.90;;;;;;;25.64;20.51;99125.44;5034319;28;20029;-77
2022/10/20 00:56:47;;;;;;;2.45;2.25;;;;;;;25.57;19.68;99124.72;5030979;28;20029;-77
2022/10/20 00:59:18;;;;;;;3.10;2.13;;;;;;;25.17;20.65;99115.88;5033015;28;20073;-77
2022/10/20 01:01:45;;;;;;;2.38;1.92;;;;;;;24.85;20.48;99125.81;5034416;28;20032;-78
2022/10/20 01:04:11;;;;;;;4.35;2.78;;;;;;;24.90;19.86;99126.16;5032421;28;20068;-77
2022/10/20 01:06:38;;;;;;;4.00;2.22;;;;;;;24.98;19.95;99121.28;5027360;28;20487;-77
2022/10/20 01:09:05;;;;;;;2.63;2.00;;;;;;;25.06;20.18;99120.00;5029041;28;20045;-77
2022/10/20 01:11:38;;;;;;;3.67;2.28;;;;;;;25.17;19.99;99123.50;5033941;28;20033;-77
2022/10/20 01:14:28;;;;;;;3.80;1.90;;;;;;;25.13;19.60;99132.00;5025411;28;20386;-77
2022/10/20 01:17:19;;;;;;;3.05;1.73;;;;;;;25.22;19.85;99126.69;5028406;28;20391;-78
2022/10/20 01:20:00;;;;;;;1.75;1.65;;;;;;;25.29;19.99;99126.59;5029404;28;20119;-77
2022/10/20 01:22:45;;;;;;;;;;;;;;;24.86;20.25;99122.59;5027548;28;20045;-77
2022/10/20 01:25:16;;;;;;;2.40;1.75;;;;;;;24.75;20.05;99121.84;5024166;28;19936;-77
2022/10/20 01:27:51;;;;;;;2.38;1.67;;;;;;;24.62;20.53;99120.75;5030372;28;21935;-77
2022/10/20 01:30:22;;;;;;;3.28;1.63;;;;;;;24.97;20.33;99123.28;5030273;28;20037;-78
2022/10/20 01:33:40;;;;;;;3.10;1.70;;;;;;;25.24;19.91;99117.81;5026864;28;20429;-77
2022/10/20 01:36:24;;;;;;;2.22;1.63;;;;;;;25.49;19.72;99121.19;5027363;28;20107;-77
2022/10/20 01:39:11;;;;;;;2.50;1.85;;;;;;;25.07;20.05;99119.59;5031760;28;20457;-77
2022/10/20 01:41:40;;;;;;;2.33;1.52;;;;;;;25.28;19.84;99138.25;5030323;28;20039;-77
2022/10/20 01:44:10;;;;;;;1.60;1.45;;;;;;;24.95;20.56;99133.38;5029401;28;20048;-79
2022/10/20 01:46:40;;;;;;;2.38;1.52;;;;;;;24.86;20.47;99130.22;5024889;28;20044;-77
2022/10/20 01:49:07;;;;;;;2.30;1.88;;;;;;;24.38;20.91;99125.34;5032890;28;20167;-77
2022/10/20 01:51:34;;;;;;;2.58;1.75;;;;;;;24.42;20.67;99120.50;5029203;28;20030;-77
2022/10/20 01:54:00;;;;;;;1.80;1.27;;;;;;;24.08;21.15;99127.13;5028197;28;20104;-77
2022/10/20 01:56:38;;;;;;;2.28;1.95;;;;;;;23.77;21.52;99121.22;5033064;28;20029;-77
2022/10/20 01:59:19;;;;;;;2.08;1.65;;;;;;;23.89;21.27;99125.59;5032142;28;20540;-77
2022/10/20 02:02:03;;;;;;;1.65;1.50;;;;;;;24.03;21.00;99123.53;5028437;28;20025;-77
2022/10/20 02:05:00;;;;;;;2.28;1.40;;;;;;;24.21;20.55;99117.03;5029396;28;20122;-77
2022/10/20 02:07:29;;;;;;;5.40;1.42;;;;;;;24.25;20.56;99118.59;5028318;28;20469;-77
2022/10/20 02:10:13;;;;;;;1.83;1.45;;;;;;;23.93;21.09;99129.97;5029560;28;20124;-77
2022/10/20 02:12:44;;;;;;;1.48;1.33;;;;;;;23.48;21.38;99122.53;5031597;28;20038;-78
2022/10/20 02:15:14;;;;;;;1.90;1.40;;;;;;;22.99;21.57;99131.00;5028978;28;20021;-77
2022/10/20 02:17:44;;;;;;;1.38;1.27;;;;;;;23.28;21.51;99122.16;5033329;28;20469;-77
2022/10/20 02:20:11;;;;;;;2.10;1.63;;;;;;;22.71;21.95;99126.19;5032937;28;20132;-77
2022/10/20 02:22:38;;;;;;;1.75;1.20;;;;;;;22.92;22.71;99128.22;5016275;28;20042;-77
2022/10/20 02:25:05;;;;;;;2.10;1.42;;;;;;;21.65;23.51;99125.09;5029539;28;20546;-77
2022/10/20 02:27:38;;;;;;;2.15;1.30;;;;;;;22.54;22.18;99135.38;5033288;28;20491;-77
2022/10/20 02:30:14;;;;;;;1.20;1.10;;;;;;;22.89;21.64;99135.41;5032032;28;20056;-77
2022/10/20 02:32:42;;;;;;;1.52;1.20;;;;;;;23.41;21.11;99135.78;5027931;28;20030;-78
2022/10/20 02:35:30;;;;;;;1.88;1.42;;;;;;;23.62;21.42;99125.28;5027147;28;20038;-77
2022/10/20 02:37:57;;;;;;;1.38;0.95;;;;;;;24.00;20.61;99123.53;5023971;28;20057;-77
2022/10/20 02:40:23;;;;;;;1.75;1.45;;;;;;;24.23;20.19;99128.63;5028357;28;20040;-77
2022/10/20 02:42:49;;;;;;;1.27;1.00;;;;;;;24.19;19.88;99125.06;5047022;28;20120;-77
2022/10/20 02:45:16;;;;;;;1.73;1.35;;;;;;;23.98;19.97;99132.34;5030990;28;20049;-77
2022/10/20 02:47:42;;;;;;;1.33;1.23;;;;;;;24.15;19.87;99130.69;5029384;28;20483;-77
2022/10/20 02:50:08;;;;;;;1.67;1.10;;;;;;;23.57;20.22;99131.31;5031004;28;20416;-77
2022/10/20 02:52:36;;;;;;;1.67;1.38;;;;;;;23.24;20.86;99132.56;5031827;28;20102;-77
2022/10/20 02:55:03;;;;;;;3.45;1.45;;;;;;;23.02;21.18;99145.00;5030790;28;20414;-77
2022/10/20 02:57:30;;;;;;;2.65;1.83;;;;;;;23.46;20.66;99127.75;5032705;28;20479;-77
2022/10/20 02:59:56;;;;;;;4.03;1.60;;;;;;;23.62;20.33;99135.72;5031692;28;20030;-77
2022/10/20 03:02:22;;;;;;;1.90;1.52;;;;;;;23.72;20.19;99130.06;5031568;28;20046;-77
2022/10/20 03:04:48;;;;;;;2.17;1.73;;;;;;;23.81;20.11;99126.81;5025300;28;20112;-77
2022/10/20 03:07:14;;;;;;;4.43;1.40;;;;;;;23.89;19.87;99139.59;5030770;28;20075;-77
2022/10/20 03:09:41;;;;;;;3.03;1.48;;;;;;;23.90;20.21;99138.38;5025300;28;20061;-77
2022/10/20 03:12:07;;;;;;;1.88;1.30;;;;;;;23.91;20.00;99140.81;5023213;28;20044;-77
2022/10/20 03:14:33;;;;;;;1.77;1.27;;;;;;;24.14;19.65;99145.94;5031453;28;20025;-77
2022/10/20 03:16:59;;;;;;;2.72;1.63;;;;;;;24.19;19.42;99145.50;5021594;28;20030;-77
2022/10/20 03:19:25;;;;;;;1.38;1.27;;;;;;;23.92;19.84;99148.00;5025296;28;20053;-77
2022/10/20 03:21:51;;;;;;;1.70;1.50;;;;;;;23.98;19.67;99154.00;5021738;28;20479;-77
2022/10/20 03:24:17;;;;;;;3.55;1.20;;;;;;;24.05;19.74;99157.56;5026647;28;20056;-77
2022/10/20 03:26:44;;;;;;;2.08;1.20;;;;;;;23.95;19.68;99155.59;5029795;28;20980;-77
2022/10/20 03:29:10;;;;;;;1.10;0.88;;;;;;;23.94;19.67;99153.22;5027177;28;20037;-77
2022/10/20 03:31:36;;;;;;;1.23;0.82;;;;;;;23.87;19.81;99161.66;5022909;28;20120;-76
2022/10/20 03:34:02;;;;;;;0.90;0.70;;;;;;;23.97;19.88;99164.41;5026211;28;20038;-77
2022/10/20 03:36:28;;;;;;;1.52;1.08;;;;;;;24.12;19.77;99168.00;5027577;28;20026;-77
2022/10/20 03:38:54;;;;;;;1.85;0.75;;;;;;;24.10;19.50;99169.59;5027229;28;20033;-77
2022/10/20 03:41:20;;;;;;;0.70;0.70;;;;;;;24.14;19.39;99171.19;5025320;28;20025;-77
2022/10/20 03:43:46;;;;;;;0.95;0.80;;;;;;;24.17;19.13;99167.56;5022371;28;20505;-76
2022/10/20 03:46:12;;;;;;;1.20;0.88;;;;;;;24.31;19.37;99170.31;5023844;28;20037;-76
2022/10/20 03:48:39;;;;;;;0.77;0.77;;;;;;;24.41;19.09;99166.59;5024084;28;20060;-77
2022/10/20 03:51:07;;;;;;;0.65;0.65;;;;;;;24.13;19.11;99174.41;5030609;28;20095;-77
2022/10/20 03:53:34;;;;;;;0.80;0.68;;;;;;;23.67;20.04;99183.75;5022303;28;20025;-77
2022/10/20 03:56:05;;;;;;;0.68;0.68;;;;;;;23.31;20.86;99173.78;5026160;28;20083;-77
2022/10/20 03:58:31;;;;;;;1.05;0.88;;;;;;;23.44;20.25;99177.81;5031745;28;20120;-77
2022/10/20 04:00:58;;;;;;;1.08;0.80;;;;;;;23.10;20.64;99179.41;5028403;28;20045;-77
2022/10/20 04:03:24;;;;;;;0.95;0.68;;;;;;;23.02;20.61;99183.41;5020610;28;20116;-77
2022/10/20 04:05:50;;;;;;;0.82;0.70;;;;;;;22.89;20.95;99187.81;5025729;28;20033;-77
2022/10/20 04:08:16;;;;;;;0.70;0.70;;;;;;;22.93;20.59;99180.22;5021660;28;20029;-77
2022/10/20 04:10:42;;;;;;;0.80;0.75;;;;;;;23.38;20.24;99175.81;5028935;28;20044;-76
2022/10/20 04:13:08;;;;;;;0.75;0.68;;;;;;;23.60;19.91;99174.56;5026690;28;20466;-77
2022/10/20 04:15:34;;;;;;;1.30;0.80;;;;;;;23.63;20.00;99168.94;5020916;28;20030;-77
2022/10/20 04:18:00;;;;;;;0.40;0.40;;;;;;;23.94;19.62;99172.84;5029068;28;20048;-77
2022/10/20 04:20:26;;;;;;;1.10;0.60;;;;;;;23.95;19.51;99175.25;5021046;28;20046;-77
2022/10/20 04:22:52;;;;;;;0.85;0.65;;;;;;;23.73;19.59;99170.94;5029219;28;20057;-78
2022/10/20 04:25:18;;;;;;;1.45;1.00;;;;;;;23.53;19.79;99177.38;5027318;28;20076;-77
2022/10/20 04:27:44;;;;;;;1.63;0.85;;;;;;;23.41;19.85;99175.03;5025353;28;20060;-78
2022/10/20 04:30:11;;;;;;;1.05;0.95;;;;;;;23.63;19.79;99182.16;5027008;28;20037;-79
2022/10/20 04:32:37;;;;;;;1.75;0.95;;;;;;;23.81;19.59;99177.28;5021448;28;20109;-77
2022/10/20 04:35:03;;;;;;;0.95;0.75;;;;;;;23.85;19.49;99178.09;5018288;28;20487;-79
2022/10/20 04:37:29;;;;;;;0.95;0.65;;;;;;;23.72;19.66;99172.13;5022852;28;20695;-77
2022/10/20 04:39:56;;;;;;;0.65;0.65;;;;;;;23.71;19.83;99172.53;5022048;28;20395;-76
2022/10/20 04:42:22;;;;;;;1.25;0.85;;;;;;;23.85;19.54;99172.50;5024889;28;20017;-77
2022/10/20 04:44:48;;;;;;;0.90;0.80;;;;;;;24.04;19.07;99164.38;5026877;28;20042;-79
2022/10/20 04:47:14;;;;;;;5.18;1.15;;;;;;;24.05;19.04;99170.78;5017983;28;20042;-76
2022/10/20 04:49:41;;;;;;;1.23;0.80;;;;;;;23.56;19.42;99168.97;5024115;28;20187;-77
2022/10/20 04:52:07;;;;;;;1.65;1.10;;;;;;;23.20;20.17;99173.00;5030297;28;20045;-77
2022/10/20 04:54:33;;;;;;;1.15;1.05;;;;;;;23.13;20.20;99173.00;5025536;28;20032;-77
2022/10/20 04:56:59;;;;;;;1.27;1.00;;;;;;;23.35;20.48;99174.63;5032107;28;20057;-77
2022/10/20 04:59:25;;;;;;;1.48;1.20;;;;;;;23.60;19.56;99168.94;5030701;28;20033;-77
2022/10/20 05:01:51;;;;;;;2.13;1.00;;;;;;;23.62;19.54;99161.72;5030535;28;20092;-77
2022/10/20 05:04:20;;;;;;;2.35;1.15;;;;;;;23.43;19.81;99175.41;5046993;28;20048;-77
2022/10/20 05:06:47;;;;;;;2.78;1.00;;;;;;;23.53;19.97;99175.38;5031921;28;20112;-77
2022/10/20 05:09:14;;;;;;;3.22;1.15;;;;;;;23.59;20.01;99176.59;5032035;28;20030;-77
2022/10/20 05:11:41;;;;;;;1.85;1.23;;;;;;;23.53;19.58;99172.56;5028324;28;20124;-77
2022/10/20 05:14:07;;;;;;;2.25;1.20;;;;;;;23.46;19.44;99181.00;5032764;28;20573;-77
2022/10/20 05:16:33;;;;;;;1.35;1.25;;;;;;;23.50;19.31;99181.00;5032308;28;20037;-77
2022/10/20 05:18:59;;;;;;;2.75;1.05;;;;;;;23.63;19.10;99185.78;5031840;28;20050;-77
2022/10/20 05:21:29;;;;;;;1.05;0.93;;;;;;;23.71;19.23;99181.72;5032451;28;20057;-77
2022/10/20 05:24:00;;;;;;;2.30;1.30;;;;;;;23.84;19.13;99188.50;5032625;28;20445;-77
2022/10/20 05:26:28;;;;;;;1.33;1.15;;;;;;;23.84;19.28;99188.50;5032339;28;20041;-77
2022/10/20 05:28:54;;;;;;;1.60;0.85;;;;;;;23.93;19.58;99191.69;5029983;28;20026;-77
2022/10/20 05:31:22;;;;;;;1.73;1.40;;;;;;;24.04;19.12;99186.81;5035818;28;20029;-77
2022/10/20 05:33:51;;;;;;;2.13;1.33;;;;;;;23.91;19.17;99190.50;5035843;28;20529;-77
2022/10/20 05:36:20;;;;;;;2.03;1.50;;;;;;;23.58;19.87;99199.38;5035932;28;20037;-77
2022/10/20 05:38:47;;;;;;;2.97;1.58;;;;;;;23.19;20.49;99197.44;5035891;28;20033;-77
2022/10/20 05:41:16;;;;;;;3.92;1.50;;;;;;;22.57;20.99;99194.16;5035594;28;20030;-77
2022/10/20 05:43:42;;;;;;;2.00;1.55;;;;;;;22.19;21.80;99203.25;5035718;28;20025;-77
2022/10/20 05:46:08;;;;;;;4.43;1.77;;;;;;;21.99;22.54;99199.16;5030547;28;20029;-77
2022/10/20 05:48:35;;;;;;;2.47;1.75;;;;;;;22.25;22.45;99212.03;5035291;28;20029;-77
2022/10/20 05:51:08;;;;;;;2.67;1.92;;;;;;;22.61;21.89;99217.38;5034217;28;20136;-77
2022/10/20 05:53:34;;;;;;;5.55;1.67;;;;;;;22.71;21.61;99210.19;5035488;28;20037;-77
2022/10/20 05:56:09;;;;;;;4.95;2.28;;;;;;;22.51;22.02;99214.53;5030899;28;20121;-77
2022/10/20 05:58:35;;;;;;;2.95;2.00;;;;;;;22.13;22.66;99216.00;5026122;28;20021;-77
2022/10/20 06:01:09;;;;;;;3.03;2.10;;;;;;;22.00;23.01;99220.34;5067294;28;20045;-77
2022/10/20 06:03:36;;;;;;;3.42;2.40;;;;;;;22.51;22.40;99229.31;5034656;28;20036;-77
2022/10/20 06:06:03;;;;;;;3.63;2.20;;;;;;;22.70;22.15;99225.41;5035471;28;20113;-77
2022/10/20 06:08:31;;;;;;;3.85;2.30;;;;;;;22.76;22.17;99229.41;5035501;28;20026;-77
2022/10/20 06:11:04;;;;;;;2.47;1.90;;;;;;;22.89;22.04;99225.03;5035326;28;20091;-77
2022/10/20 06:13:31;;;;;;;3.42;1.90;;;;;;;23.32;21.83;99223.84;5035343;28;20057;-77
2022/10/20 06:16:06;;;;;;;6.40;2.45;;;;;;;23.63;21.36;99224.22;5033731;28;20395;-77
2022/10/20 06:18:33;;;;;;;2.50;2.05;;;;;;;23.77;21.31;99233.41;5034211;28;20124;-77
2022/10/20 06:21:05;;;;;;;2.17;1.88;;;;;;;23.88;21.51;99231.38;5035138;28;20038;-77
2022/10/20 06:23:31;;;;;;;2.20;1.85;;;;;;;23.79;21.47;99228.19;5035085;28;20029;-77
2022/10/20 06:26:06;;;;;;;3.33;1.92;;;;;;;23.95;21.49;99230.53;5034801;28;20025;-77
2022/10/20 06:28:34;;;;;;;1.98;1.77;;;;;;;24.42;21.06;99229.19;5034847;28;20029;-77
2022/10/20 06:31:08;;;;;;;2.80;1.60;;;;;;;24.70;20.67;99234.63;5034588;28;20041;-77
2022/10/20 06:33:34;;;;;;;5.30;1.80;;;;;;;24.68;20.81;99231.44;5035188;28;20480;-77
2022/10/20 06:36:00;;;;;;;5.40;2.45;;;;;;;24.49;21.26;99232.75;5030864;28;20104;-77
2022/10/20 06:38:27;;;;;;;2.85;2.20;;;;;;;24.59;21.54;99231.09;5034772;28;20025;-77
2022/10/20 06:40:53;;;;;;;2.78;1.95;;;;;;;24.65;21.71;99230.25;5034302;28;20079;-77
2022/10/20 06:43:20;;;;;;;2.22;1.95;;;;;;;24.73;21.45;99231.00;5034573;28;20033;-77
2022/10/20 06:46:00;;;;;;;2.28;1.67;;;;;;;24.72;21.90;99227.41;5034064;28;20025;-77
2022/10/20 06:48:27;;;;;;;3.60;1.77;;;;;;;24.66;21.84;99229.06;5034543;28;20095;-77
2022/10/20 06:51:02;;;;;;;3.85;2.30;;;;;;;24.54;22.04;99237.13;5034481;28;20475;-77
2022/10/20 06:53:29;;;;;;;5.03;3.10;;;;;;;24.46;22.38;99229.94;5030506;28;20394;-77
2022/10/20 06:56:06;;;;;;;5.85;3.00;;;;;;;24.60;22.59;99230.69;5034473;28;20035;-77
2022/10/20 06:58:36;;;;;;;4.03;2.60;;;;;;;25.00;22.17;99229.25;5033982;28;20505;-77
2022/10/20 07:01:04;;;;;;;5.72;2.67;;;;;;;25.13;22.00;99238.78;5034313;28;20037;-77
2022/10/20 07:03:31;;;;;;;7.47;3.83;;;;;;;24.21;23.40;99235.69;5034751;28;20033;-77
2022/10/20 07:05:58;;;;;;;6.70;3.70;;;;;;;23.80;24.29;99243.03;5034357;28;20034;-77
2022/10/20 07:08:27;;;;;;;7.97;3.88;;;;;;;24.42;23.19;99240.41;5034365;28;20076;-77
2022/10/20 07:11:06;;;;;;;6.40;3.63;;;;;;;24.89;23.04;99234.16;5033152;28;20520;-77
2022/10/20 07:13:35;;;;;;;8.52;4.25;;;;;;;25.22;22.38;99233.50;5033927;28;20111;-77
2022/10/20 07:16:01;;;;;;;6.10;3.55;;;;;;;25.50;22.29;99229.66;5034152;28;20426;-78
2022/10/20 07:18:28;;;;;;;6.20;4.32;;;;;;;25.29;22.22;99222.19;5033157;28;20057;-78
2022/10/20 07:21:00;;;;;;;6.80;4.15;;;;;;;23.79;24.32;99228.19;5034119;28;20406;-78
2022/10/20 07:23:28;;;;;;;6.75;4.50;;;;;;;24.28;23.69;99229.25;5034158;28;20426;-78
2022/10/20 07:26:06;;;;;;;4.65;3.33;;;;;;;23.67;25.02;99228.63;5033845;28;20029;-78
2022/10/20 07:28:34;;;;;;;6.88;3.47;;;;;;;23.44;25.29;99228.25;5029360;28;20116;-77
2022/10/20 07:31:06;;;;;;;5.63;3.58;;;;;;;23.42;24.74;99225.06;5033691;28;20095;-77
2022/10/20 07:33:32;;;;;;;5.70;2.90;;;;;;;23.81;24.43;99222.16;5033787;28;20487;-77
2022/10/20 07:35:58;;;;;;;3.05;2.67;;;;;;;22.99;25.63;99221.41;5034104;28;20083;-78
2022/10/20 07:38:25;;;;;;;4.38;2.30;;;;;;;24.21;23.83;99215.25;5033745;28;20021;-78
2022/10/20 07:40:51;;;;;;;2.78;2.17;;;;;;;25.08;22.70;99211.13;5033611;28;20037;-77
2022/10/20 07:43:17;;;;;;;2.97;1.77;;;;;;;25.41;22.47;99210.41;5033188;28;20029;-77
2022/10/20 07:45:44;;;;;;;2.85;1.90;;;;;;;25.17;22.44;99210.66;5033207;28;20069;-78
2022/10/20 07:48:10;;;;;;;3.47;1.83;;;;;;;25.49;22.12;99214.00;5033601;28;20068;-80
2022/10/20 07:50:36;;;;;;;2.22;1.90;;;;;;;26.05;21.87;99213.38;5032868;28;20041;-80
2022/10/20 07:53:05;;;;;;;2.80;1.85;;;;;;;24.40;24.07;99209.94;5033319;28;20029;-78
2022/10/20 07:55:33;;;;;;;1.92;1.73;;;;;;;23.98;24.66;99215.72;5033399;28;20056;-78
2022/10/20 07:57:59;;;;;;;2.35;1.58;;;;;;;24.56;24.48;99213.06;5032956;28;20072;-78
2022/10/20 08:00:25;;;;;;;2.50;1.50;;;;;;;25.02;23.77;99204.34;5031982;28;20029;-78
2022/10/20 08:02:51;;;;;;;3.78;1.65;;;;;;;25.13;23.31;99198.63;5030423;28;20030;-78
2022/10/20 08:05:17;;;;;;;2.13;1.35;;;;;;;25.95;22.56;99197.41;5033392;28;20108;-78
2022/10/20 08:07:43;;;;;;;2.03;1.30;;;;;;;26.31;22.26;99189.34;5032311;28;20030;-78
2022/10/20 08:10:09;;;;;;;3.95;1.75;;;;;;;26.66;21.92;99194.47;5032657;28;20034;-78
2022/10/20 08:12:37;;;;;;;3.03;2.08;;;;;;;23.98;25.34;99199.69;5031742;28;20044;-78
2022/10/20 08:15:03;;;;;;;3.45;2.10;;;;;;;22.25;27.91;99198.06;5033380;28;20029;-78
2022/10/20 08:17:29;;;;;;;3.40;2.30;;;;;;;23.44;26.69;99203.03;5031610;28;20034;-78
2022/10/20 08:19:56;;;;;;;7.40;1.52;;;;;;;25.20;23.90;99201.38;5032589;28;20037;-77
2022/10/20 08:22:22;;;;;;;2.05;1.23;;;;;;;25.89;22.63;99206.75;5031885;28;20592;-77
2022/10/20 08:24:48;;;;;;;3.35;2.15;;;;;;;26.02;22.86;99199.38;5032044;28;20405;-78
2022/10/20 08:27:14;;;;;;;3.90;1.85;;;;;;;25.50;23.08;99209.97;5032574;28;20033;-78
2022/10/20 08:29:40;;;;;;;5.25;1.52;;;;;;;24.29;24.83;99214.00;5027397;28;20568;-78
2022/10/20 08:32:07;;;;;;;1.60;1.50;;;;;;;25.31;23.47;99216.13;5032846;28;20034;-78
2022/10/20 08:34:33;;;;;;;1.17;1.02;;;;;;;26.63;22.24;99212.22;5031890;28;20076;-78
2022/10/20 08:36:59;;;;;;;2.03;0.93;;;;;;;27.24;21.09;99217.75;5031614;28;20041;-78
2022/10/20 08:39:25;;;;;;;1.40;1.10;;;;;;;26.81;21.28;99211.22;5032757;28;20036;-78
2022/10/20 08:41:52;;;;;;;0.70;0.70;;;;;;;26.32;21.67;99216.31;5032585;28;20099;-78
2022/10/20 08:44:26;;;;;;;1.33;0.93;;;;;;;26.91;21.33;99210.25;5032987;28;20037;-77
2022/10/20 08:46:53;;;;;;;1.00;0.90;;;;;;;27.25;20.95;99214.53;5032500;28;20061;-78
2022/10/20 08:49:26;;;;;;;1.20;0.88;;;;;;;25.86;21.77;99207.56;5032419;28;20034;-78
2022/10/20 08:51:52;;;;;;;1.30;0.70;;;;;;;25.86;22.30;99221.63;5031273;28;20060;-78
2022/10/20 08:54:18;;;;;;;1.33;0.60;;;;;;;26.10;21.05;99212.16;5012895;28;20026;-77
2022/10/20 08:56:45;;;;;;;0.75;0.65;;;;;;;23.56;24.17;99218.63;5012973;28;20073;-78
2022/10/20 08:59:24;;;;;;;1.08;0.70;;;;;;;24.52;23.50;99211.47;5013025;28;20026;-78
2022/10/20 09:01:50;;;;;;;4.15;0.68;;;;;;;23.99;23.18;99211.72;5013130;28;20030;-78
2022/10/20 09:04:23;;;;;;;0.52;0.52;;;;;;;25.27;22.82;99204.13;5015572;28;20483;-78
2022/10/20 09:07:09;;;;;;;1.40;0.80;;;;;;;23.07;24.36;99211.84;5016761;28;20045;-78
2022/10/20 09:09:35;;;;;;;1.42;0.88;;;;;;;21.45;28.23;99205.63;5027024;28;20112;-78
2022/10/20 09:12:05;;;;;;;0.95;0.60;;;;;;;22.27;25.78;99201.25;5036515;28;20064;-78
2022/10/20 09:14:35;;;;;;;1.40;0.60;;;;;;;23.44;24.38;99205.81;5036494;28;20423;-78
2022/10/20 09:17:01;;;;;;;0.68;0.50;;;;;;;23.03;25.02;99201.84;5035940;28;20283;-78
2022/10/20 09:19:28;;;;;;;0.73;0.63;;;;;;;25.00;22.84;99192.72;5035950;28;20049;-78
2022/10/20 09:21:57;;;;;;;0.60;0.60;;;;;;;24.72;24.49;99193.69;5035787;28;20526;-78
2022/10/20 09:24:28;;;;;;;1.08;0.60;;;;;;;26.06;21.94;99186.03;5036280;28;20040;-78
2022/10/20 09:26:54;;;;;;;;;;;;;;;23.69;22.75;99191.75;5035971;28;20116;-78
2022/10/20 09:29:32;;;;;;;0.57;0.57;;;;;;;21.60;27.56;99193.34;5036030;28;20016;-78
2022/10/20 09:31:58;;;;;;;0.90;0.55;;;;;;;22.31;27.47;99190.91;5035886;28;20044;-78
2022/10/20 09:34:34;;;;;;;0.77;0.47;;;;;;;21.04;26.46;99184.56;5035997;28;20017;-78
2022/10/20 09:37:06;;;;;;;0.85;0.45;;;;;;;23.48;24.27;99183.41;5035936;28;20394;-78
2022/10/20 09:39:46;;;;;;;0.63;0.43;;;;;;;23.08;24.13;99188.22;5036133;28;20033;-78
2022/10/20 09:42:34;;;;;;;0.88;0.40;;;;;;;24.83;21.79;99181.63;5034756;28;20071;-78
2022/10/20 09:45:20;;;;;;;0.63;0.50;;;;;;;25.20;23.01;99174.09;5027327;28;20044;-78
2022/10/20 09:47:51;;;;;;;0.25;0.25;;;;;;;26.04;21.36;99166.72;5020903;28;20037;-78
2022/10/20 09:50:29;;;;;;;2.38;0.63;;;;;;;23.41;22.63;99175.03;5035513;28;20501;-78
2022/10/20 09:52:57;;;;;;;0.70;0.40;;;;;;;25.77;21.09;99168.69;5035313;28;20030;-78
2022/10/20 09:55:40;;;;;;;1.58;0.30;;;;;;;26.27;20.61;99163.28;5035786;28;20088;-78
2022/10/20 09:58:14;;;;;;;0.80;0.40;;;;;;;27.10;19.82;99159.59;5035700;28;20042;-78
2022/10/20 10:00:46;;;;;;;0.47;0.35;;;;;;;27.23;19.31;99154.94;5034743;28;20053;-78
2022/10/20 10:03:21;;;;;;;0.45;0.30;;;;;;;26.29;21.45;99154.38;5035520;28;20052;-78
2022/10/20 10:05:50;;;;;;;0.47;0.35;;;;;;;26.98;19.98;99150.97;5035283;28;20025;-78
2022/10/20 10:08:18;;;;;;;0.30;0.25;;;;;;;27.58;19.50;99161.97;5035301;28;20042;-78
2022/10/20 10:10:57;;;;;;;0.88;0.30;;;;;;;27.62;19.19;99153.44;5035402;28;20040;-78
2022/10/20 10:13:28;;;;;;;0.95;0.30;;;;;;;27.12;19.87;99154.31;5035578;28;20021;-78
2022/10/20 10:16:07;;;;;;;1.23;0.40;;;;;;;24.82;21.13;99152.72;5035115;28;20108;-78
2022/10/20 10:18:35;;;;;;;0.20;0.20;;;;;;;24.47;22.51;99156.56;5030839;28;20057;-78
2022/10/20 10:21:07;;;;;;;0.22;0.20;;;;;;;24.07;22.39;99154.38;5034588;28;20048;-78
2022/10/20 10:23:35;;;;;;;0.40;0.40;;;;;;;24.03;22.33;99162.00;5034894;28;20030;-78
2022/10/20 10:26:06;;;;;;;0.32;0.30;;;;;;;22.46;23.78;99158.94;5034959;28;20049;-78
2022/10/20 10:28:34;;;;;;;1.17;0.50;;;;;;;22.32;26.22;99162.50;5035286;28;20120;-78
2022/10/20 10:31:14;;;;;;;0.30;0.30;;;;;;;24.39;23.30;99152.19;5035422;28;20481;-78
2022/10/20 10:33:41;;;;;;;0.57;0.40;;;;;;;23.66;23.37;99151.31;5031415;28;20062;-78
2022/10/20 10:36:24;;;;;;;0.20;0.20;;;;;;;25.81;22.12;99141.28;5033936;28;20037;-78
2022/10/20 10:38:50;;;;;;;0.30;0.30;;;;;;;24.63;21.94;99144.81;5034733;28;20478;-80
2022/10/20 10:41:31;;;;;;;0.40;0.20;;;;;;;25.80;20.91;99144.53;5035062;28;20116;-79
2022/10/20 10:44:16;;;;;;;0.28;0.28;;;;;;;25.38;19.87;99146.59;5034990;28;20034;-78
2022/10/20 10:47:01;;;;;;;0.80;0.20;;;;;;;24.98;20.26;99144.56;5016835;28;20030;-79
2022/10/20 10:49:44;;;;;;;0.40;0.22;;;;;;;25.15;21.41;99132.38;5032848;28;20483;-78
2022/10/20 10:52:49;;;;;;;0.25;0.25;;;;;;;25.02;20.17;99139.69;5029634;28;20030;-78
2022/10/20 10:55:25;;;;;;;0.30;0.30;;;;;;;24.18;24.32;99131.88;5014633;28;20475;-79
2022/10/20 10:58:24;;;;;;;0.35;0.30;;;;;;;25.31;21.34;99129.00;5014809;28;20089;-78
2022/10/20 11:00:53;;;;;;;0.50;0.43;;;;;;;25.91;20.45;99119.88;5014750;28;20376;-78
2022/10/20 11:03:27;;;;;;;0.60;0.40;;;;;;;24.05;21.72;99123.91;5014718;28;20052;-78
2022/10/20 11:06:03;;;;;;;0.45;0.20;;;;;;;23.43;23.52;99128.56;5014705;28;20113;-78
2022/10/20 11:08:50;;;;;;;0.45;0.30;;;;;;;23.25;24.47;99125.75;5023788;28;20033;-79
2022/10/20 11:11:33;;;;;;;0.30;0.30;;;;;;;24.57;20.94;99118.41;5025896;28;20044;-78
2022/10/20 11:14:37;;;;;;;0.32;0.32;;;;;;;24.82;20.12;99118.22;5034299;28;20026;-78
2022/10/20 11:17:22;;;;;;;0.40;0.20;;;;;;;26.15;20.75;99106.72;5034164;28;20056;-79
2022/10/20 11:19:57;;;;;;;0.57;0.28;;;;;;;25.54;22.11;99103.06;5033497;28;20046;-78
2022/10/20 11:22:41;;;;;;;0.50;0.30;;;;;;;26.84;18.89;99103.28;5032812;28;20040;-78
2022/10/20 11:25:15;;;;;;;1.40;0.50;;;;;;;27.07;19.51;99097.63;5029454;28;20038;-79
2022/10/20 11:27:42;;;;;;;2.00;0.40;;;;;;;27.00;18.98;99089.31;5033323;28;20487;-79
2022/10/20 11:30:17;;;;;;;0.60;0.20;;;;;;;25.02;21.37;99088.34;5033885;28;20041;-79
2022/10/20 11:33:00;;;;;;;0.40;0.25;;;;;;;26.55;19.09;99089.63;5033851;28;20029;-78
2022/10/20 11:35:45;;;;;;;0.22;0.22;;;;;;;25.04;20.43;99085.91;5033906;28;20025;-78
2022/10/20 11:38:37;;;;;;;0.20;0.15;;;;;;;23.37;21.10;99085.31;5033540;28;20057;-79
2022/10/20 11:41:17;;;;;;;0.43;0.30;;;;;;;23.19;24.60;99076.94;5033783;28;20120;-78
2022/10/20 11:43:47;;;;;;;0.32;0.32;;;;;;;22.36;26.16;99076.56;5033358;28;20030;-78
2022/10/20 11:46:18;;;;;;;0.20;0.20;;;;;;;23.51;24.23;99062.84;5033696;28;20037;-78
2022/10/20 11:48:55;;;;;;;1.08;0.30;;;;;;;25.41;22.78;99060.63;5033118;28;20121;-79
2022/10/20 11:51:37;;;;;;;0.90;0.30;;;;;;;24.10;21.05;99069.41;5033921;28;20036;-79